Time;durP1;ratioP1;P1;durP2;ratioP2;P2;SDS_P1;SDS_P2;PMS_P1;PMS_P2;Temp;Humidity;BMP_temperature;BMP_pressure;BME280_temperature;BME280_humidity;BME280_pressure;Samples;Min_cycle;Max_cycle;Signal;HPM_P1;HPM_P2
2021/03/17 00:02:06;;;;;;;11.45;9.38;;;18.30;67.00;;;;;;5117904;27;20030;-37
2021/03/17 00:04:31;;;;;;;10.48;9.40;;;18.30;66.90;;;;;;5130080;27;20076;-37
2021/03/17 00:06:57;;;;;;;9.93;8.07;;;18.40;67.00;;;;;;5117669;27;20024;-38
2021/03/17 00:09:22;;;;;;;9.27;8.27;;;18.30;67.00;;;;;;5117170;27;20031;-37
2021/03/17 00:11:48;;;;;;;10.00;8.60;;;18.40;66.90;;;;;;5123813;27;20015;-38
2021/03/17 00:14:13;;;;;;;10.55;8.90;;;18.30;66.80;;;;;;5128316;27;20041;-38
2021/03/17 00:16:39;;;;;;;9.80;8.48;;;18.30;66.80;;;;;;5114148;27;20065;-38
2021/03/17 00:19:05;;;;;;;9.02;8.13;;;18.30;66.80;;;;;;5128571;27;20471;-37
2021/03/17 00:21:30;;;;;;;9.52;7.88;;;18.30;66.90;;;;;;5116188;27;20030;-35
2021/03/17 00:23:56;;;;;;;10.20;7.80;;;18.30;67.00;;;;;;5118450;27;20387;-37
2021/03/17 00:26:21;;;;;;;9.07;7.40;;;18.30;66.80;;;;;;5124944;27;20099;-35
2021/03/17 00:28:47;;;;;;;7.80;7.10;;;18.40;66.80;;;;;;5117162;27;20035;-36
2021/03/17 00:31:13;;;;;;;9.32;8.02;;;18.30;66.60;;;;;;5116511;27;20385;-45
2021/03/17 00:33:38;;;;;;;9.63;8.52;;;18.30;66.80;;;;;;5117254;27;20035;-37
2021/03/17 00:36:04;;;;;;;8.70;7.90;;;18.30;66.80;;;;;;5117259;27;20026;-37
2021/03/17 00:38:29;;;;;;;9.25;7.50;;;18.30;66.70;;;;;;5119306;28;20111;-37
2021/03/17 00:40:55;;;;;;;7.85;7.05;;;18.30;66.70;;;;;;5118730;27;20026;-36
2021/03/17 00:43:21;;;;;;;8.65;6.97;;;18.30;66.90;;;;;;5123690;27;20035;-34
2021/03/17 00:45:46;;;;;;;8.05;6.80;;;18.30;66.80;;;;;;5124726;27;20503;-35
2021/03/17 00:48:12;;;;;;;7.25;6.55;;;18.30;66.90;;;;;;5121869;27;20088;-35
2021/03/17 00:50:37;;;;;;;7.68;6.50;;;18.20;66.90;;;;;;5126002;27;20024;-37
2021/03/17 00:53:03;;;;;;;7.22;6.53;;;18.20;67.00;;;;;;5110577;28;20051;-35
2021/03/17 00:55:29;;;;;;;8.23;7.07;;;18.20;66.90;;;;;;5114870;28;20507;-38
2021/03/17 00:57:54;;;;;;;7.28;6.57;;;18.20;67.00;;;;;;5126070;28;20130;-35
2021/03/17 01:00:20;;;;;;;7.97;7.00;;;18.20;66.90;;;;;;5125534;28;20102;-35
2021/03/17 01:02:46;;;;;;;7.30;6.60;;;18.20;67.00;;;;;;5125870;28;20076;-37
2021/03/17 01:05:12;;;;;;;9.13;6.85;;;18.20;67.10;;;;;;5129236;27;20029;-38
2021/03/17 01:07:39;;;;;;;7.15;6.45;;;18.20;67.10;;;;;;5133685;27;20055;-38
2021/03/17 01:10:19;;;;;;;8.32;6.63;;;18.20;67.40;;;;;;5110932;27;20084;-38
2021/03/17 01:12:44;;;;;;;7.25;6.25;;;18.20;67.30;;;;;;5121540;27;20035;-42
2021/03/17 01:15:12;;;;;;;5.90;5.40;;;18.20;67.30;;;;;;5118860;27;20059;-37
2021/03/17 01:17:38;;;;;;;6.78;6.15;;;18.20;67.40;;;;;;5122242;27;20086;-37
2021/03/17 01:20:04;;;;;;;6.38;5.88;;;18.20;67.60;;;;;;5127246;27;20485;-36
2021/03/17 01:22:29;;;;;;;7.05;6.38;;;18.20;67.60;;;;;;5120796;27;20480;-37
2021/03/17 01:24:55;;;;;;;6.30;5.80;;;18.20;67.80;;;;;;5121786;27;20012;-38
2021/03/17 01:27:21;;;;;;;6.88;6.18;;;18.10;67.70;;;;;;5121809;27;20031;-35
2021/03/17 01:29:46;;;;;;;7.45;6.70;;;18.10;67.80;;;;;;5125427;27;20453;-36
2021/03/17 01:32:12;;;;;;;6.68;5.78;;;18.10;67.70;;;;;;5130969;27;20027;-38
2021/03/17 01:34:37;;;;;;;6.00;5.50;;;18.10;68.00;;;;;;5117487;27;20082;-36
2021/03/17 01:37:03;;;;;;;6.05;5.45;;;18.10;68.10;;;;;;5131886;27;20401;-38
2021/03/17 01:39:28;;;;;;;6.50;5.35;;;18.10;68.10;;;;;;5132572;27;20026;-38
2021/03/17 01:41:54;;;;;;;6.28;5.68;;;18.10;68.00;;;;;;5124095;27;20110;-36
2021/03/17 01:44:19;;;;;;;5.88;5.32;;;18.10;68.00;;;;;;5100905;27;20024;-37
2021/03/17 01:46:45;;;;;;;6.25;5.70;;;18.10;68.20;;;;;;5132209;27;20040;-36
2021/03/17 01:49:11;;;;;;;6.45;5.88;;;18.10;68.50;;;;;;5131889;27;20019;-37
2021/03/17 01:51:36;;;;;;;5.97;5.38;;;18.10;68.40;;;;;;5119536;27;20095;-42
2021/03/17 01:54:04;;;;;;;4.93;4.63;;;18.10;68.40;;;;;;5129640;27;20489;-38
2021/03/17 01:56:29;;;;;;;5.25;4.75;;;18.10;68.40;;;;;;5128575;27;20031;-37
2021/03/17 01:58:55;;;;;;;5.53;5.03;;;18.10;68.60;;;;;;5143577;27;20023;-36
2021/03/17 02:01:21;;;;;;;4.75;4.40;;;18.10;68.80;;;;;;5107869;27;20056;-35
2021/03/17 02:03:47;;;;;;;5.05;4.65;;;18.10;68.70;;;;;;5130555;27;20046;-36
2021/03/17 02:06:12;;;;;;;5.20;4.70;;;18.10;68.70;;;;;;5130842;27;20034;-37
2021/03/17 02:08:40;;;;;;;4.65;4.30;;;18.00;68.90;;;;;;5113042;27;20095;-37
2021/03/17 02:11:06;;;;;;;5.93;4.50;;;18.00;68.80;;;;;;5131521;27;20041;-37
2021/03/17 02:13:37;;;;;;;5.60;5.20;;;18.00;68.90;;;;;;5117616;27;20473;-37
2021/03/17 02:16:12;;;;;;;5.28;4.88;;;18.00;69.00;;;;;;5129002;27;20031;-36
2021/03/17 02:18:50;;;;;;;4.82;4.40;;;18.00;69.10;;;;;;5120127;27;20115;-37
2021/03/17 02:21:16;;;;;;;5.65;4.80;;;18.00;69.10;;;;;;5120078;27;20023;-37
2021/03/17 02:24:03;;;;;;;4.90;4.50;;;18.00;69.10;;;;;;5118804;27;20069;-37
2021/03/17 02:26:54;;;;;;;4.43;4.10;;;18.00;69.20;;;;;;5129051;27;20429;-37
2021/03/17 02:29:35;;;;;;;5.22;4.82;;;18.00;69.00;;;;;;5119828;27;20019;-36
2021/03/17 02:32:31;;;;;;;5.03;4.50;;;18.00;69.10;;;;;;5131815;27;20472;-36
2021/03/17 02:34:58;;;;;;;4.35;4.00;;;18.00;69.30;;;;;;5106352;27;20072;-36
2021/03/17 02:37:24;;;;;;;4.13;3.78;;;18.00;69.30;;;;;;5113113;27;20039;-37
2021/03/17 02:39:55;;;;;;;4.20;3.88;;;18.00;69.40;;;;;;5096994;28;20042;-37
2021/03/17 02:42:31;;;;;;;4.00;3.80;;;17.90;69.60;;;;;;5140081;27;20041;-36
2021/03/17 02:45:07;;;;;;;4.20;3.90;;;17.90;69.50;;;;;;5125177;27;20080;-38
2021/03/17 02:47:36;;;;;;;4.60;4.20;;;18.00;69.50;;;;;;5101556;27;20080;-36
2021/03/17 02:50:03;;;;;;;4.68;4.28;;;18.00;70.50;;;;;;5103724;27;20118;-38
2021/03/17 02:52:31;;;;;;;4.60;4.20;;;17.90;69.80;;;;;;5116815;27;20027;-42
2021/03/17 02:54:56;;;;;;;4.68;4.28;;;17.90;69.80;;;;;;5113514;27;20027;-36
2021/03/17 02:57:24;;;;;;;4.10;3.80;;;17.90;69.80;;;;;;5082536;28;20036;-36
2021/03/17 02:59:54;;;;;;;4.20;3.90;;;17.90;69.70;;;;;;5100964;28;20031;-38
2021/03/17 03:02:22;;;;;;;4.40;4.10;;;17.90;69.80;;;;;;5116636;27;20462;-36
2021/03/17 03:04:51;;;;;;;4.43;4.13;;;17.90;69.60;;;;;;5130275;27;20152;-38
2021/03/17 03:07:17;;;;;;;4.10;3.70;;;17.90;69.80;;;;;;5130269;27;20034;-40
2021/03/17 03:09:43;;;;;;;3.67;3.38;;;17.90;69.80;;;;;;5124939;27;20023;-36
2021/03/17 03:12:08;;;;;;;4.07;3.63;;;17.90;69.70;;;;;;5098008;27;20393;-38
2021/03/17 03:14:34;;;;;;;4.03;3.65;;;17.90;69.70;;;;;;5109155;27;20079;-38
2021/03/17 03:17:01;;;;;;;4.10;3.80;;;17.90;69.90;;;;;;5111349;27;20666;-36
2021/03/17 03:19:31;;;;;;;3.95;3.65;;;17.90;69.80;;;;;;5123726;27;20044;-38
2021/03/17 03:21:56;;;;;;;3.88;3.58;;;17.90;69.90;;;;;;5116796;27;20434;-36
2021/03/17 03:24:22;;;;;;;4.05;3.75;;;17.90;69.90;;;;;;5106430;27;20038;-35
2021/03/17 03:26:55;;;;;;;4.00;3.70;;;17.90;69.80;;;;;;5124792;27;20068;-35
2021/03/17 03:29:20;;;;;;;3.50;3.30;;;17.80;69.70;;;;;;5126839;27;20492;-36
2021/03/17 03:31:47;;;;;;;3.92;3.13;;;17.90;69.80;;;;;;5129352;27;20026;-37
2021/03/17 03:34:13;;;;;;;3.67;3.38;;;17.90;69.80;;;;;;5117833;27;20032;-35
2021/03/17 03:36:39;;;;;;;3.85;3.55;;;17.80;69.70;;;;;;5101052;28;20039;-36
2021/03/17 03:39:05;;;;;;;3.65;3.35;;;17.90;69.80;;;;;;5100309;28;20447;-35
2021/03/17 03:41:30;;;;;;;3.42;3.13;;;17.90;69.70;;;;;;5118207;27;20106;-37
2021/03/17 03:43:56;;;;;;;4.45;4.03;;;17.90;69.80;;;;;;5115368;27;20107;-35
2021/03/17 03:46:21;;;;;;;3.35;3.10;;;17.80;69.80;;;;;;5124073;27;20051;-37
2021/03/17 03:48:47;;;;;;;3.10;2.90;;;17.90;69.80;;;;;;5126334;27;20524;-35
2021/03/17 03:51:12;;;;;;;3.50;3.20;;;17.80;69.90;;;;;;5126977;27;20023;-35
2021/03/17 03:53:59;;;;;;;3.58;2.90;;;17.80;69.80;;;;;;5123634;27;20500;-37
2021/03/17 03:56:39;;;;;;;2.92;2.72;;;17.80;69.70;;;;;;5097857;27;20050;-37
2021/03/17 03:59:12;;;;;;;2.88;2.67;;;17.80;69.80;;;;;;5102654;27;20389;-37
2021/03/17 04:01:44;;;;;;;3.53;3.28;;;17.80;69.70;;;;;;5102771;27;20054;-37
2021/03/17 04:04:12;;;;;;;3.08;2.88;;;17.80;69.70;;;;;;5095755;28;20023;-37
2021/03/17 04:06:37;;;;;;;2.80;2.60;;;17.80;69.60;;;;;;5099747;28;20401;-36
2021/03/17 04:09:03;;;;;;;2.63;2.42;;;17.80;69.60;;;;;;5113985;27;20036;-38
2021/03/17 04:11:29;;;;;;;2.70;2.60;;;17.80;69.50;;;;;;5101116;27;20069;-37
2021/03/17 04:13:56;;;;;;;2.47;2.38;;;17.80;69.50;;;;;;5106021;27;20023;-36
2021/03/17 04:16:22;;;;;;;2.78;2.58;;;17.80;69.60;;;;;;5109898;27;20030;-38
2021/03/17 04:18:48;;;;;;;2.60;2.40;;;17.80;69.70;;;;;;5102489;27;20031;-39
2021/03/17 04:21:17;;;;;;;2.88;2.67;;;17.80;69.60;;;;;;5114799;27;20031;-35
2021/03/17 04:23:43;;;;;;;2.60;2.40;;;17.80;69.50;;;;;;5101169;27;20025;-37
2021/03/17 04:26:09;;;;;;;2.50;2.30;;;17.80;69.60;;;;;;5108614;28;20019;-35
2021/03/17 04:28:34;;;;;;;2.50;2.30;;;17.80;69.50;;;;;;5108961;28;20114;-37
2021/03/17 04:31:00;;;;;;;2.50;2.30;;;17.80;69.50;;;;;;5106247;27;20720;-44
2021/03/17 04:33:26;;;;;;;2.38;2.28;;;17.80;69.40;;;;;;5098978;27;20057;-36
2021/03/17 04:35:56;;;;;;;2.17;2.08;;;17.80;69.50;;;;;;5108447;28;20028;-37
2021/03/17 04:38:23;;;;;;;2.20;2.10;;;17.80;69.50;;;;;;5114387;27;20070;-37
2021/03/17 04:40:48;;;;;;;2.42;2.33;;;17.80;69.40;;;;;;5123822;27;20039;-37
2021/03/17 04:43:14;;;;;;;2.55;2.33;;;17.80;69.30;;;;;;5099230;27;20070;-45
2021/03/17 04:45:39;;;;;;;2.47;2.38;;;17.80;69.40;;;;;;5097750;28;20040;-36
2021/03/17 04:48:05;;;;;;;2.35;2.17;;;17.80;69.40;;;;;;5100206;27;20035;-36
2021/03/17 04:50:31;;;;;;;2.15;2.05;;;17.80;69.30;;;;;;5110708;28;20016;-37
2021/03/17 04:52:57;;;;;;;2.30;2.10;;;17.80;69.40;;;;;;5110592;28;20590;-37
2021/03/17 04:55:22;;;;;;;2.28;2.08;;;17.80;69.40;;;;;;5128998;28;20027;-35
2021/03/17 04:57:48;;;;;;;2.35;2.25;;;17.80;69.40;;;;;;5125932;28;20108;-36
2021/03/17 05:00:19;;;;;;;1.98;1.88;;;17.80;69.40;;;;;;5106897;28;20023;-42
2021/03/17 05:03:07;;;;;;;2.00;1.90;;;17.80;69.40;;;;;;5106419;28;20034;-38
2021/03/17 05:05:33;;;;;;;2.08;1.98;;;17.80;69.50;;;;;;5125612;28;20058;-38
2021/03/17 05:07:59;;;;;;;1.90;1.80;;;17.80;69.40;;;;;;5130140;27;20477;-38
2021/03/17 05:10:26;;;;;;;1.92;1.83;;;17.80;69.40;;;;;;5097130;28;20106;-38
2021/03/17 05:12:53;;;;;;;1.90;1.80;;;17.80;69.40;;;;;;5128919;28;20023;-38
2021/03/17 05:15:19;;;;;;;1.80;1.70;;;17.80;69.40;;;;;;5104874;28;20030;-38
2021/03/17 05:17:46;;;;;;;1.80;1.70;;;17.80;69.20;;;;;;5124767;28;20024;-38
2021/03/17 05:20:14;;;;;;;2.20;2.00;;;17.80;69.40;;;;;;5123751;28;20401;-38
2021/03/17 05:22:44;;;;;;;2.20;2.00;;;17.80;69.40;;;;;;5113004;28;20023;-36
2021/03/17 05:25:10;;;;;;;1.75;1.65;;;17.80;69.30;;;;;;5111866;28;20404;-40
2021/03/17 05:27:36;;;;;;;1.80;1.70;;;17.80;69.30;;;;;;5125481;28;20027;-38
2021/03/17 05:30:06;;;;;;;2.10;1.95;;;17.80;69.20;;;;;;5100796;28;20034;-35
2021/03/17 05:32:32;;;;;;;1.60;1.50;;;17.80;69.20;;;;;;5125348;28;20451;-38
2021/03/17 05:35:00;;;;;;;1.88;1.77;;;17.80;69.00;;;;;;5122229;28;20031;-37
2021/03/17 05:37:26;;;;;;;1.80;1.70;;;17.80;69.10;;;;;;5114299;28;20093;-39
2021/03/17 05:39:51;;;;;;;1.90;1.80;;;17.80;69.10;;;;;;5116274;28;20039;-41
2021/03/17 05:42:17;;;;;;;1.75;1.65;;;17.80;69.10;;;;;;5113403;28;20038;-38
2021/03/17 05:44:42;;;;;;;1.60;1.50;;;17.80;69.00;;;;;;5116335;28;20051;-35
2021/03/17 05:47:09;;;;;;;1.60;1.50;;;17.80;69.00;;;;;;5122175;27;20055;-38
2021/03/17 05:49:36;;;;;;;1.55;1.45;;;17.80;68.90;;;;;;5117563;28;20421;-34
2021/03/17 05:52:01;;;;;;;1.60;1.50;;;17.80;68.90;;;;;;5104759;27;20031;-41
2021/03/17 05:54:27;;;;;;;1.67;1.58;;;17.80;69.70;;;;;;5103427;27;20363;-37
2021/03/17 05:56:53;;;;;;;1.50;1.40;;;17.80;69.00;;;;;;5110334;28;20054;-39
2021/03/17 05:59:19;;;;;;;2.08;1.83;;;17.80;70.30;;;;;;5116436;27;20019;-38
2021/03/17 06:01:44;;;;;;;1.70;1.60;;;17.90;70.00;;;;;;5131885;27;20051;-37
2021/03/17 06:04:10;;;;;;;2.03;1.48;;;17.90;69.90;;;;;;5099566;27;20522;-36
2021/03/17 06:06:38;;;;;;;1.60;1.50;;;17.90;70.00;;;;;;5102643;28;20024;-37
2021/03/17 06:09:04;;;;;;;3.75;2.40;;;17.90;70.20;;;;;;5101939;28;20052;-37
2021/03/17 06:11:30;;;;;;;4.03;3.20;;;17.90;70.10;;;;;;5137373;27;20444;-39
2021/03/17 06:13:56;;;;;;;3.45;3.20;;;17.80;69.80;;;;;;5112061;27;20034;-37
2021/03/17 06:16:22;;;;;;;4.15;2.83;;;17.80;69.50;;;;;;5113554;27;20024;-37
2021/03/17 06:18:58;;;;;;;3.03;2.33;;;17.80;69.50;;;;;;5130856;27;20102;-37
2021/03/17 06:21:24;;;;;;;3.88;2.10;;;17.70;69.30;;;;;;5115006;27;20450;-36
2021/03/17 06:23:53;;;;;;;3.72;1.70;;;17.80;68.80;;;;;;5097695;27;20023;-38
2021/03/17 06:26:18;;;;;;;2.85;2.08;;;17.80;67.20;;;;;;5126082;27;20041;-37
2021/03/17 06:28:47;;;;;;;2.03;1.92;;;17.80;67.50;;;;;;5126012;27;20042;-38
2021/03/17 06:31:13;;;;;;;2.38;2.22;;;17.80;67.10;;;;;;5115271;27;20106;-39
2021/03/17 06:33:39;;;;;;;2.40;2.20;;;17.90;67.60;;;;;;5111874;27;20110;-36
2021/03/17 06:36:07;;;;;;;3.80;1.80;;;17.80;67.80;;;;;;5121821;27;20415;-37
2021/03/17 06:38:33;;;;;;;2.30;2.10;;;17.90;68.00;;;;;;5102893;28;20454;-36
2021/03/17 06:40:59;;;;;;;3.35;3.05;;;18.00;69.00;;;;;;5102090;27;20024;-38
2021/03/17 06:43:44;;;;;;;2.20;2.05;;;18.00;69.40;;;;;;5118738;27;20055;-36
2021/03/17 06:46:11;;;;;;;5.05;2.53;;;18.00;69.70;;;;;;5120102;27;20561;-38
2021/03/17 06:48:40;;;;;;;2.40;2.20;;;18.00;69.40;;;;;;5120654;27;20020;-38
2021/03/17 06:51:11;;;;;;;2.22;2.13;;;18.20;69.40;;;;;;5124495;27;20038;-36
2021/03/17 06:53:44;;;;;;;2.67;2.17;;;18.20;69.10;;;;;;5129075;27;20024;-36
2021/03/17 06:56:14;;;;;;;2.20;2.00;;;18.20;69.50;;;;;;5131224;27;20023;-37
2021/03/17 06:58:41;;;;;;;3.55;2.70;;;18.20;70.00;;;;;;5120242;27;20088;-39
2021/03/17 07:01:28;;;;;;;2.60;2.30;;;18.20;70.00;;;;;;5126199;27;20034;-38
2021/03/17 07:04:17;;;;;;;2.97;2.78;;;18.20;69.10;;;;;;5113579;27;20020;-38
2021/03/17 07:06:44;;;;;;;5.70;3.53;;;18.20;69.70;;;;;;5096863;27;20027;-36
2021/03/17 07:09:20;;;;;;;7.78;3.58;;;18.20;69.90;;;;;;5131729;27;20035;-39
2021/03/17 07:11:47;;;;;;;4.40;4.00;;;18.20;69.80;;;;;;5128718;27;20022;-38
2021/03/17 07:14:13;;;;;;;6.97;4.60;;;18.20;69.50;;;;;;5139779;27;20117;-38
2021/03/17 07:16:46;;;;;;;5.15;4.70;;;18.30;69.00;;;;;;5125715;27;20123;-37
2021/03/17 07:19:11;;;;;;;5.03;4.55;;;18.30;69.00;;;;;;5118056;27;20032;-36
2021/03/17 07:21:38;;;;;;;5.13;4.72;;;18.30;69.00;;;;;;5089802;27;20129;-37
2021/03/17 07:24:05;;;;;;;5.38;4.88;;;18.30;68.70;;;;;;5121319;27;20019;-38
2021/03/17 07:26:35;;;;;;;4.90;3.83;;;18.30;68.60;;;;;;5128255;27;20500;-38
2021/03/17 07:29:12;;;;;;;6.78;4.72;;;18.30;68.50;;;;;;5121080;27;20542;-39
2021/03/17 07:31:46;;;;;;;7.20;4.35;;;18.20;68.50;;;;;;5121948;27;20034;-41
2021/03/17 07:34:12;;;;;;;5.22;3.80;;;18.30;68.40;;;;;;5126069;27;20126;-40
2021/03/17 07:36:47;;;;;;;4.55;4.15;;;18.30;68.30;;;;;;5124443;27;20126;-40
2021/03/17 07:39:25;;;;;;;4.50;4.10;;;18.30;68.00;;;;;;5135032;27;20027;-39
2021/03/17 07:41:52;;;;;;;4.13;3.80;;;18.30;67.50;;;;;;5114218;27;20031;-41
2021/03/17 07:44:18;;;;;;;4.03;3.72;;;18.30;67.80;;;;;;5118146;27;20047;-39
2021/03/17 07:46:46;;;;;;;4.03;3.72;;;18.40;67.30;;;;;;5122345;27;20086;-42
2021/03/17 07:49:12;;;;;;;3.90;3.53;;;18.40;67.10;;;;;;5113200;27;20104;-42
2021/03/17 07:51:50;;;;;;;3.33;3.08;;;18.40;66.90;;;;;;5119694;27;20019;-39
2021/03/17 07:54:21;;;;;;;4.00;3.22;;;18.40;67.10;;;;;;5101943;28;20374;-41
2021/03/17 07:56:48;;;;;;;2.97;2.78;;;18.40;66.50;;;;;;5117923;27;20027;-40
2021/03/17 07:59:15;;;;;;;2.88;2.58;;;18.40;66.80;;;;;;5133735;27;20095;-41
2021/03/17 08:01:40;;;;;;;3.38;3.08;;;18.30;66.50;;;;;;5112669;27;20073;-39
2021/03/17 08:04:06;;;;;;;3.15;2.95;;;18.30;66.70;;;;;;5110837;27;20485;-40
2021/03/17 08:06:31;;;;;;;3.22;2.92;;;18.30;66.50;;;;;;5109196;27;20095;-42
2021/03/17 08:08:58;;;;;;;2.97;2.78;;;18.40;66.30;;;;;;5123802;27;20095;-42
2021/03/17 08:11:23;;;;;;;3.70;2.72;;;18.40;66.00;;;;;;5120708;27;20035;-40
2021/03/17 08:13:49;;;;;;;2.90;2.70;;;18.50;65.90;;;;;;5115467;27;20020;-40
2021/03/17 08:16:20;;;;;;;2.97;2.78;;;18.50;65.70;;;;;;5114174;27;20027;-39
2021/03/17 08:18:46;;;;;;;3.00;2.58;;;18.50;65.60;;;;;;5106129;28;20043;-39
2021/03/17 08:21:12;;;;;;;3.10;2.80;;;18.50;65.60;;;;;;5125568;27;20122;-39
2021/03/17 08:23:38;;;;;;;3.42;3.13;;;18.50;65.60;;;;;;5101188;28;20111;-39
2021/03/17 08:26:03;;;;;;;3.00;2.80;;;18.50;65.90;;;;;;5128418;27;20027;-40
2021/03/17 08:28:29;;;;;;;2.53;2.33;;;18.50;66.00;;;;;;5096431;27;20028;-41
2021/03/17 08:30:58;;;;;;;2.60;2.40;;;18.50;66.10;;;;;;5117372;27;20035;-41
2021/03/17 08:33:36;;;;;;;2.97;2.70;;;18.50;65.90;;;;;;5097296;28;20012;-39
2021/03/17 08:36:15;;;;;;;2.95;2.75;;;18.50;65.80;;;;;;5117607;27;20024;-38
2021/03/17 08:38:57;;;;;;;3.42;2.65;;;18.50;65.70;;;;;;5117872;27;20027;-41
2021/03/17 08:41:44;;;;;;;2.85;2.65;;;18.40;65.70;;;;;;5128535;27;20051;-39
2021/03/17 08:44:41;;;;;;;3.08;2.47;;;18.40;66.00;;;;;;5110707;28;20008;-41
2021/03/17 08:47:28;;;;;;;2.78;2.55;;;18.40;65.80;;;;;;4997642;28;20038;-41
2021/03/17 08:49:56;;;;;;;2.75;2.50;;;18.40;65.30;;;;;;5007762;28;20082;-39
2021/03/17 08:52:22;;;;;;;3.65;2.75;;;18.40;66.20;;;;;;5017802;28;20531;-40
2021/03/17 08:54:58;;;;;;;3.50;2.50;;;18.40;65.60;;;;;;5008142;28;20069;-39
2021/03/17 08:57:24;;;;;;;2.60;2.40;;;18.40;65.50;;;;;;5005168;28;20524;-40
2021/03/17 09:00:00;;;;;;;2.90;2.53;;;18.50;65.40;;;;;;5004163;28;20097;-40
2021/03/17 09:02:25;;;;;;;2.78;2.50;;;18.40;65.30;;;;;;5005005;28;20037;-41
2021/03/17 09:04:57;;;;;;;2.72;2.25;;;18.40;65.50;;;;;;5007939;28;20038;-39
2021/03/17 09:07:25;;;;;;;3.08;2.15;;;18.50;65.50;;;;;;5006416;28;20041;-39
2021/03/17 09:09:51;;;;;;;2.10;2.00;;;18.50;65.30;;;;;;5006112;28;20026;-40
2021/03/17 09:12:43;;;;;;;3.05;2.35;;;18.60;65.00;;;;;;5001893;28;20056;-41
2021/03/17 09:15:14;;;;;;;2.00;1.80;;;18.50;64.80;;;;;;4992856;28;20038;-40
2021/03/17 09:17:55;;;;;;;2.72;2.40;;;18.50;64.80;;;;;;4994090;28;20046;-41
2021/03/17 09:20:38;;;;;;;2.40;2.20;;;18.50;64.90;;;;;;4996591;28;20034;-42
2021/03/17 09:23:21;;;;;;;2.20;2.03;;;18.60;65.30;;;;;;5004424;28;20038;-40
2021/03/17 09:25:50;;;;;;;2.25;2.05;;;18.50;65.30;;;;;;5111548;27;20019;-41
2021/03/17 09:28:18;;;;;;;2.42;2.08;;;18.50;65.30;;;;;;5135961;27;20066;-41
2021/03/17 09:30:48;;;;;;;2.78;1.92;;;18.50;65.50;;;;;;5129872;27;20027;-39
2021/03/17 09:33:15;;;;;;;2.70;2.47;;;18.50;65.90;;;;;;5101650;28;20032;-40
2021/03/17 09:35:41;;;;;;;2.25;2.08;;;18.50;65.90;;;;;;5134853;27;20020;-40
2021/03/17 09:38:12;;;;;;;1.98;1.83;;;18.50;66.10;;;;;;5106297;28;20047;-44
2021/03/17 09:40:43;;;;;;;2.47;1.95;;;18.50;66.30;;;;;;5128721;27;20546;-47
2021/03/17 09:43:30;;;;;;;2.28;2.15;;;18.50;66.20;;;;;;5117279;27;20465;-43
2021/03/17 09:45:56;;;;;;;2.58;2.03;;;18.50;66.20;;;;;;5126413;27;20031;-41
2021/03/17 09:48:22;;;;;;;2.10;1.90;;;18.50;66.30;;;;;;5131464;27;20031;-41
2021/03/17 09:50:47;;;;;;;2.30;1.80;;;18.60;66.30;;;;;;5131847;27;20027;-39
2021/03/17 09:53:14;;;;;;;2.22;1.95;;;18.60;67.10;;;;;;5111380;28;20032;-41
2021/03/17 09:55:40;;;;;;;2.35;2.15;;;18.60;66.50;;;;;;5115671;27;20019;-41
2021/03/17 09:58:06;;;;;;;2.63;1.73;;;18.60;66.30;;;;;;5112292;27;20111;-41
2021/03/17 10:00:32;;;;;;;2.75;1.70;;;18.70;66.10;;;;;;5121185;27;20023;-41
2021/03/17 10:02:59;;;;;;;2.65;2.00;;;18.80;66.30;;;;;;5125096;27;20027;-38
2021/03/17 10:05:25;;;;;;;1.65;1.52;;;18.80;66.30;;;;;;5120321;27;20034;-39
2021/03/17 10:07:51;;;;;;;2.17;1.83;;;18.80;66.20;;;;;;5121646;27;20043;-41
2021/03/17 10:10:17;;;;;;;1.88;1.75;;;18.90;66.00;;;;;;5118557;27;20035;-42
2021/03/17 10:12:43;;;;;;;1.67;1.58;;;18.90;66.10;;;;;;5129198;27;20076;-41
2021/03/17 10:15:13;;;;;;;2.45;1.70;;;18.90;66.10;;;;;;5126830;27;20027;-41
2021/03/17 10:17:39;;;;;;;1.60;1.50;;;18.90;66.20;;;;;;5128344;27;20070;-41
2021/03/17 10:20:06;;;;;;;1.35;1.30;;;18.90;66.10;;;;;;5101118;27;20032;-41
2021/03/17 10:22:32;;;;;;;1.83;1.70;;;19.00;65.90;;;;;;5127322;27;20027;-41
2021/03/17 10:24:59;;;;;;;2.13;1.63;;;19.10;65.80;;;;;;4769806;27;10000615;-42
2021/03/17 10:27:33;;;;;;;1.60;1.50;;;19.20;65.60;;;;;;5115336;27;20508;-43
2021/03/17 10:30:00;;;;;;;1.75;1.65;;;19.30;65.40;;;;;;5125651;27;20019;-42
2021/03/17 10:32:25;;;;;;;1.73;1.63;;;19.40;65.10;;;;;;5076126;27;20088;-42
2021/03/17 10:34:51;;;;;;;1.55;1.45;;;19.40;65.10;;;;;;5111270;27;20031;-43
2021/03/17 10:37:21;;;;;;;1.77;1.45;;;19.40;64.90;;;;;;5118497;27;20058;-40
2021/03/17 10:39:51;;;;;;;1.55;1.30;;;19.50;65.50;;;;;;5128262;27;20034;-40
2021/03/17 10:42:26;;;;;;;2.33;1.48;;;19.50;64.50;;;;;;5118953;27;20039;-40
2021/03/17 10:45:09;;;;;;;1.55;1.45;;;19.50;64.60;;;;;;5120775;27;20042;-37
2021/03/17 10:47:35;;;;;;;2.38;1.83;;;19.50;64.40;;;;;;5121047;27;20065;-38
2021/03/17 10:50:00;;;;;;;1.42;1.33;;;19.50;64.40;;;;;;5126885;27;20705;-40
2021/03/17 10:52:42;;;;;;;1.67;1.50;;;19.50;64.30;;;;;;5113641;27;20031;-39
2021/03/17 10:55:12;;;;;;;1.98;1.48;;;19.50;64.50;;;;;;5120229;27;20063;-39
2021/03/17 10:57:38;;;;;;;1.48;1.38;;;19.50;64.40;;;;;;5127415;27;20043;-40
2021/03/17 11:00:11;;;;;;;1.98;1.40;;;19.50;64.50;;;;;;5130235;27;20412;-40
2021/03/17 11:02:37;;;;;;;2.22;1.60;;;19.50;64.10;;;;;;5124250;27;20083;-42
2021/03/17 11:05:09;;;;;;;2.63;1.50;;;19.50;64.10;;;;;;5129629;27;20442;-44
2021/03/17 11:08:05;;;;;;;2.22;1.50;;;19.40;63.80;;;;;;5130831;27;20034;-40
2021/03/17 11:10:50;;;;;;;2.03;1.80;;;19.40;63.80;;;;;;5131666;27;20027;-44
2021/03/17 11:13:16;;;;;;;1.95;1.63;;;19.40;63.80;;;;;;5119602;27;20495;-46
2021/03/17 11:16:01;;;;;;;2.35;1.73;;;19.30;63.30;;;;;;5127953;27;20046;-40
2021/03/17 11:18:36;;;;;;;3.60;2.15;;;19.30;63.60;;;;;;5118301;27;20062;-43
2021/03/17 11:21:09;;;;;;;2.60;1.73;;;19.30;64.00;;;;;;5118488;27;20026;-41
2021/03/17 11:23:36;;;;;;;4.25;2.13;;;19.30;63.50;;;;;;5118055;27;20490;-41
2021/03/17 11:26:03;;;;;;;2.80;2.00;;;19.30;63.50;;;;;;5116162;27;20023;-41
2021/03/17 11:28:31;;;;;;;2.88;1.55;;;19.40;63.50;;;;;;5097754;27;20397;-40
2021/03/17 11:31:01;;;;;;;3.08;1.90;;;19.40;63.50;;;;;;5119670;27;20027;-39
2021/03/17 11:33:27;;;;;;;3.35;2.10;;;19.40;64.30;;;;;;5125754;27;20516;-41
2021/03/17 11:35:54;;;;;;;5.15;2.05;;;19.50;63.40;;;;;;5122356;27;20019;-38
2021/03/17 11:38:20;;;;;;;6.07;3.40;;;19.50;63.50;;;;;;5124211;27;20027;-41
2021/03/17 11:40:45;;;;;;;12.32;6.07;;;19.50;63.90;;;;;;5125031;27;20027;-42
2021/03/17 11:43:37;;;;;;;12.55;6.90;;;19.50;63.70;;;;;;5124579;27;20038;-41
2021/03/17 11:46:03;;;;;;;13.98;6.97;;;19.50;64.20;;;;;;5111453;27;20047;-44
2021/03/17 11:48:29;;;;;;;12.25;6.80;;;19.60;63.70;;;;;;5109984;27;20058;-42
2021/03/17 11:50:55;;;;;;;12.80;6.78;;;19.60;64.90;;;;;;5120771;27;20122;-42
2021/03/17 11:53:21;;;;;;;11.20;6.88;;;19.60;63.70;;;;;;5125957;27;20019;-41
2021/03/17 11:55:47;;;;;;;13.70;6.10;;;19.60;62.50;;;;;;5113090;27;20393;-41
2021/03/17 11:58:13;;;;;;;13.45;6.57;;;19.60;63.90;;;;;;5112986;27;20039;-41
2021/03/17 12:00:39;;;;;;;13.52;6.07;;;19.60;64.00;;;;;;5128862;27;20064;-41
2021/03/17 12:03:05;;;;;;;14.13;6.82;;;19.60;64.30;;;;;;5109989;27;20100;-41
2021/03/17 12:05:30;;;;;;;12.23;6.43;;;19.60;64.10;;;;;;5125839;27;20016;-40
2021/03/17 12:07:56;;;;;;;10.10;5.93;;;19.60;64.20;;;;;;5129647;27;20039;-41
2021/03/17 12:10:22;;;;;;;9.15;5.78;;;19.60;64.10;;;;;;5118300;27;20031;-41
2021/03/17 12:12:47;;;;;;;10.68;5.60;;;19.60;64.10;;;;;;5130550;27;20412;-40
2021/03/17 12:15:18;;;;;;;8.73;5.60;;;19.60;64.00;;;;;;5130220;27;20128;-41
2021/03/17 12:17:44;;;;;;;7.57;5.65;;;19.60;64.60;;;;;;5110698;27;20042;-41
2021/03/17 12:20:10;;;;;;;8.05;6.18;;;19.70;64.40;;;;;;5124397;27;20012;-41
2021/03/17 12:22:35;;;;;;;8.05;6.05;;;19.70;64.50;;;;;;5125805;27;20031;-41
2021/03/17 12:25:02;;;;;;;6.65;4.50;;;19.70;63.30;;;;;;5129174;27;20271;-41
2021/03/17 12:27:28;;;;;;;7.15;5.28;;;19.70;63.20;;;;;;5121685;27;20023;-42
2021/03/17 12:29:54;;;;;;;7.93;4.82;;;19.70;63.50;;;;;;5117107;27;20035;-41
2021/03/17 12:32:19;;;;;;;8.65;4.82;;;19.70;62.80;;;;;;5116222;27;20034;-44
2021/03/17 12:34:45;;;;;;;8.35;5.22;;;19.70;63.90;;;;;;5125354;27;20027;-40
2021/03/17 12:37:11;;;;;;;7.68;4.95;;;19.80;63.80;;;;;;5106719;27;20432;-41
2021/03/17 12:39:38;;;;;;;7.72;4.72;;;19.80;63.60;;;;;;5122604;27;20027;-39
2021/03/17 12:42:04;;;;;;;7.63;4.20;;;19.80;63.30;;;;;;5121513;27;20031;-41
2021/03/17 12:44:30;;;;;;;8.98;4.35;;;19.80;63.20;;;;;;5121188;27;20027;-42
2021/03/17 12:46:57;;;;;;;5.60;4.50;;;19.90;63.40;;;;;;5123173;27;20035;-40
2021/03/17 12:49:23;;;;;;;7.20;4.40;;;19.90;63.30;;;;;;5112745;27;20066;-45
2021/03/17 12:51:48;;;;;;;5.15;3.83;;;19.90;63.40;;;;;;5125495;27;20504;-40
2021/03/17 12:54:14;;;;;;;5.18;3.90;;;19.80;63.20;;;;;;5118118;27;20544;-39